createdAt,value
2023-07-22T00:02:25.158Z,99.90
2023-07-22T00:04:56.908Z,99.90
2023-07-22T00:07:28.605Z,99.90
2023-07-22T00:10:00.729Z,99.90
2023-07-22T00:12:32.364Z,99.90
2023-07-22T00:15:03.987Z,99.90
2023-07-22T00:17:35.625Z,99.90
2023-07-22T00:20:11.274Z,99.90
2023-07-22T00:22:43.828Z,99.90
2023-07-22T00:25:15.439Z,99.90
2023-07-22T00:27:48.878Z,99.90
2023-07-22T00:30:20.682Z,99.90
2023-07-22T00:32:52.300Z,99.90
2023-07-22T00:35:23.824Z,99.90
2023-07-22T00:37:55.628Z,99.90
2023-07-22T00:40:27.313Z,99.90
2023-07-22T00:43:00.164Z,99.90
2023-07-22T00:45:31.649Z,99.90
2023-07-22T00:48:03.966Z,99.90
2023-07-22T00:50:37.632Z,99.90
2023-07-22T00:53:09.250Z,99.90
2023-07-22T00:55:42.969Z,99.90
2023-07-22T00:58:14.657Z,99.90
2023-07-22T01:00:46.275Z,99.90
2023-07-22T01:03:18.522Z,99.90
2023-07-22T01:05:52.736Z,99.90
2023-07-22T01:08:24.358Z,99.90
2023-07-22T01:10:56.276Z,99.90
2023-07-22T01:13:28.041Z,99.90
2023-07-22T01:16:00.005Z,99.90
2023-07-22T01:18:31.611Z,99.90
2023-07-22T01:21:03.709Z,99.90
2023-07-22T01:23:35.550Z,99.90
2023-07-22T01:26:07.541Z,99.90
2023-07-22T01:28:39.150Z,99.90
2023-07-22T01:31:10.737Z,99.90
2023-07-22T01:33:42.311Z,99.90
2023-07-22T01:36:13.893Z,99.90
2023-07-22T01:38:45.611Z,99.90
2023-07-22T01:41:17.419Z,99.90
2023-07-22T01:43:49.992Z,99.90
2023-07-22T01:46:22.976Z,99.90
2023-07-22T01:48:54.667Z,99.90
2023-07-22T01:51:26.519Z,99.90
2023-07-22T01:53:58.458Z,99.90
2023-07-22T01:56:30.272Z,99.90
2023-07-22T01:59:02.079Z,99.90
2023-07-22T02:01:33.945Z,99.90
2023-07-22T02:04:07.787Z,99.90
2023-07-22T02:06:39.536Z,99.90
2023-07-22T02:09:13.122Z,99.90
2023-07-22T02:11:44.701Z,99.90
2023-07-22T02:14:16.342Z,99.90
2023-07-22T02:16:48.354Z,99.90
2023-07-22T02:19:20.091Z,99.90
2023-07-22T02:21:51.871Z,99.90
2023-07-22T02:24:23.899Z,99.90
2023-07-22T02:26:56.327Z,99.90
2023-07-22T02:29:28.878Z,99.90
2023-07-22T02:32:00.577Z,99.90
2023-07-22T02:34:32.503Z,99.90
2023-07-22T02:37:04.214Z,99.90
2023-07-22T02:39:35.807Z,99.90
2023-07-22T02:42:08.614Z,99.90
2023-07-22T02:44:40.100Z,99.90
2023-07-22T02:47:12.023Z,99.90
2023-07-22T02:49:43.599Z,99.90
2023-07-22T02:52:15.129Z,99.90
2023-07-22T02:54:49.624Z,99.90
2023-07-22T02:57:21.412Z,99.90
2023-07-22T02:59:53.720Z,99.90
2023-07-22T03:02:25.330Z,99.90
2023-07-22T03:04:57.171Z,99.90
2023-07-22T03:07:28.781Z,99.90
2023-07-22T03:10:00.757Z,99.90
2023-07-22T03:12:32.443Z,99.90
2023-07-22T03:15:04.947Z,99.90
2023-07-22T03:17:37.659Z,99.90
2023-07-22T03:20:13.544Z,99.90
2023-07-22T03:22:45.579Z,99.90
2023-07-22T03:25:18.758Z,99.90
2023-07-22T03:27:50.668Z,99.90
2023-07-22T03:30:24.287Z,99.90
2023-07-22T03:32:55.956Z,99.90
2023-07-22T03:35:27.490Z,99.90
2023-07-22T03:37:59.834Z,99.90
2023-07-22T03:40:31.805Z,99.90
2023-07-22T03:43:03.474Z,99.90
2023-07-22T03:45:34.968Z,99.90
2023-07-22T03:48:07.321Z,99.90
2023-07-22T03:50:39.232Z,99.90
2023-07-22T03:53:10.850Z,99.90
2023-07-22T03:55:42.638Z,99.90
2023-07-22T03:58:14.304Z,99.90
2023-07-22T04:00:47.970Z,99.90
2023-07-22T04:03:19.970Z,99.90
2023-07-22T04:05:57.283Z,99.90
2023-07-22T04:08:28.908Z,99.90
2023-07-22T04:11:00.989Z,99.90
2023-07-22T04:13:32.633Z,99.90
2023-07-22T04:16:04.101Z,99.90
2023-07-22T04:18:35.942Z,99.90
2023-07-22T04:21:07.575Z,99.90
2023-07-22T04:23:39.207Z,99.90
2023-07-22T04:26:11.048Z,99.90
2023-07-22T04:28:42.620Z,99.90
2023-07-22T04:31:14.487Z,99.90
2023-07-22T04:33:46.654Z,99.90
2023-07-22T04:36:18.728Z,99.90
2023-07-22T04:38:50.230Z,99.90
2023-07-22T04:41:22.253Z,99.90
2023-07-22T04:43:54.330Z,99.90
2023-07-22T04:46:27.248Z,99.90
2023-07-22T04:48:59.754Z,99.90
2023-07-22T04:51:33.190Z,99.90
2023-07-22T04:54:04.706Z,99.90
2023-07-22T04:56:36.235Z,99.90
2023-07-22T04:59:08.088Z,99.90
2023-07-22T05:01:40.161Z,99.90
2023-07-22T05:04:11.768Z,99.90
2023-07-22T05:06:43.324Z,99.90
2023-07-22T05:09:15.012Z,99.90
2023-07-22T05:11:46.584Z,99.90
2023-07-22T05:14:18.579Z,99.90
2023-07-22T05:16:50.616Z,99.90
2023-07-22T05:19:23.201Z,99.90
2023-07-22T05:21:55.078Z,99.90
2023-07-22T05:24:26.707Z,99.90
2023-07-22T05:27:07.859Z,99.90
2023-07-22T05:29:31.486Z,99.90
2023-07-22T05:32:03.030Z,99.90
2023-07-22T05:34:34.605Z,99.90
2023-07-22T05:37:07.484Z,99.90
2023-07-22T05:39:39.215Z,99.90
2023-07-22T05:42:10.930Z,99.90
2023-07-22T05:44:42.492Z,99.90
2023-07-22T05:47:14.271Z,99.90
2023-07-22T05:49:45.838Z,99.90
2023-07-22T05:52:17.374Z,99.90
2023-07-22T05:54:48.915Z,99.90
2023-07-22T05:57:20.506Z,99.90
2023-07-22T06:00:07.001Z,99.90
2023-07-22T06:02:25.608Z,99.90
2023-07-22T06:04:57.223Z,99.90
2023-07-22T06:07:29.304Z,99.90
2023-07-22T06:10:00.878Z,99.90
2023-07-22T06:12:32.562Z,99.90
2023-07-22T06:15:04.363Z,99.90
2023-07-22T06:20:03.817Z,99.90
2023-07-22T06:22:36.410Z,99.90
2023-07-22T06:25:14.704Z,99.90
2023-07-22T06:27:46.426Z,99.90
2023-07-22T06:30:18.515Z,99.90
2023-07-22T06:32:50.259Z,99.90
2023-07-22T06:35:22.325Z,99.90
2023-07-22T06:37:57.054Z,99.90
2023-07-22T06:40:33.113Z,99.90
2023-07-22T06:43:06.738Z,99.90
2023-07-22T06:45:38.598Z,99.90
2023-07-22T06:48:10.318Z,99.90
2023-07-22T06:50:49.546Z,99.90
2023-07-22T06:53:21.412Z,99.90
2023-07-22T06:55:53.721Z,99.90
2023-07-22T06:58:25.469Z,99.90
2023-07-22T07:00:57.977Z,99.90
2023-07-22T07:03:29.712Z,99.90
2023-07-22T07:06:01.332Z,99.90
2023-07-22T07:08:32.833Z,99.90
2023-07-22T07:11:04.498Z,99.90
2023-07-22T07:13:36.194Z,99.90
2023-07-22T07:16:27.941Z,99.90
2023-07-22T07:19:00.164Z,99.90
2023-07-22T07:21:31.802Z,99.90
2023-07-22T07:24:03.699Z,99.90
2023-07-22T07:26:35.470Z,99.90
2023-07-22T07:29:07.103Z,99.90
2023-07-22T07:31:39.128Z,99.90
2023-07-22T07:34:19.037Z,99.90
2023-07-22T07:36:50.640Z,99.90
2023-07-22T07:39:22.191Z,99.90
2023-07-22T07:41:53.826Z,99.90
2023-07-22T07:44:25.393Z,99.90
2023-07-22T07:46:57.174Z,99.90
2023-07-22T07:49:28.712Z,99.90
2023-07-22T07:52:00.408Z,99.90
2023-07-22T07:54:33.475Z,99.90
2023-07-22T07:57:05.729Z,99.90
2023-07-22T07:59:39.574Z,99.90
2023-07-22T08:02:11.524Z,99.90
2023-07-22T08:04:43.531Z,99.90
2023-07-22T08:07:18.026Z,99.90
2023-07-22T08:09:51.047Z,99.90
2023-07-22T08:12:23.082Z,99.90
2023-07-22T08:14:56.198Z,99.90
2023-07-22T08:17:27.963Z,99.90
2023-07-22T08:19:59.563Z,99.90
2023-07-22T08:22:31.756Z,99.90
2023-07-22T08:25:04.080Z,99.90
2023-07-22T08:27:35.812Z,99.90
2023-07-22T08:30:09.630Z,99.90
2023-07-22T08:32:41.298Z,99.90
2023-07-22T08:35:13.042Z,99.90
2023-07-22T08:37:44.620Z,99.90
2023-07-22T08:40:16.384Z,99.90
2023-07-22T08:42:50.195Z,99.90
2023-07-22T08:45:24.033Z,99.90
2023-07-22T08:47:58.758Z,99.90
2023-07-22T08:50:33.701Z,99.90
2023-07-22T08:53:06.428Z,99.90
2023-07-22T08:55:38.188Z,99.90
2023-07-22T08:58:11.834Z,99.90
2023-07-22T09:00:43.876Z,99.90
2023-07-22T09:03:16.355Z,99.90
2023-07-22T09:05:48.758Z,99.90
2023-07-22T09:08:20.258Z,99.90
2023-07-22T09:10:51.905Z,99.90
2023-07-22T09:13:25.436Z,99.90
2023-07-22T09:16:03.050Z,99.90
2023-07-22T09:18:36.395Z,99.90
2023-07-22T09:21:08.057Z,99.90
2023-07-22T09:23:40.684Z,99.90
2023-07-22T09:26:14.281Z,99.90
2023-07-22T09:28:59.161Z,99.90
2023-07-22T09:31:31.541Z,99.90
2023-07-22T09:34:11.946Z,99.90
2023-07-22T09:36:53.950Z,99.90
2023-07-22T09:39:26.462Z,99.90
2023-07-22T09:42:00.284Z,99.90
2023-07-22T09:44:34.202Z,99.90
2023-07-22T09:47:10.652Z,99.90
2023-07-22T09:49:46.352Z,99.90
2023-07-22T09:52:18.387Z,99.90
2023-07-22T09:54:52.688Z,99.90
2023-07-22T09:57:25.688Z,99.90
2023-07-22T09:59:58.383Z,99.90
2023-07-22T10:02:31.098Z,99.90
2023-07-22T10:05:05.222Z,99.90
2023-07-22T10:07:39.623Z,99.90
2023-07-22T10:10:12.754Z,99.90
2023-07-22T10:12:45.570Z,99.90
2023-07-22T10:15:19.207Z,99.90
2023-07-22T10:17:51.795Z,99.90
2023-07-22T10:20:27.439Z,99.90
2023-07-22T10:23:01.074Z,99.90
2023-07-22T10:25:33.403Z,99.90
2023-07-22T10:28:07.824Z,99.90
2023-07-22T10:30:39.653Z,99.90
2023-07-22T10:33:11.635Z,99.90
2023-07-22T10:35:48.525Z,99.90
2023-07-22T10:38:20.497Z,99.90
2023-07-22T10:40:54.116Z,99.90
2023-07-22T10:43:29.238Z,99.90
2023-07-22T10:46:04.460Z,99.90
2023-07-22T10:48:40.441Z,99.90
2023-07-22T10:51:16.087Z,99.90
2023-07-22T10:53:49.460Z,99.90
2023-07-22T10:56:23.068Z,99.90
2023-07-22T10:59:04.965Z,99.90
2023-07-22T11:01:42.132Z,99.90
2023-07-22T11:04:27.975Z,99.90
2023-07-22T11:07:02.731Z,99.90
2023-07-22T11:09:39.522Z,99.90
2023-07-22T11:12:14.359Z,99.90
2023-07-22T11:14:51.493Z,99.90
2023-07-22T11:17:31.307Z,99.90
2023-07-22T11:20:04.147Z,99.90
2023-07-22T11:22:36.624Z,99.90
2023-07-22T11:25:10.360Z,99.90
2023-07-22T11:27:43.529Z,99.90
2023-07-22T11:30:16.209Z,99.90
2023-07-22T11:32:50.875Z,99.90
2023-07-22T11:35:22.520Z,99.90
2023-07-22T11:38:03.447Z,99.90
2023-07-22T11:40:37.226Z,99.90
2023-07-22T11:43:09.150Z,99.90
2023-07-22T11:45:42.692Z,99.90
2023-07-22T11:48:33.561Z,99.90
2023-07-22T11:51:07.079Z,99.90
2023-07-22T11:53:43.813Z,99.90
2023-07-22T11:56:15.430Z,99.90
2023-07-22T11:58:51.936Z,99.90
2023-07-22T12:01:24.246Z,99.90
2023-07-22T12:03:59.399Z,99.90
2023-07-22T12:06:31.469Z,99.90
2023-07-22T12:09:03.537Z,99.90
2023-07-22T12:11:36.383Z,99.90
2023-07-22T12:14:15.252Z,99.90
2023-07-22T12:16:46.451Z,99.90
2023-07-22T12:19:18.298Z,99.90
2023-07-22T12:21:50.391Z,99.90
2023-07-22T12:24:22.061Z,99.90
2023-07-22T12:26:53.757Z,99.90
2023-07-22T12:29:26.859Z,99.90
2023-07-22T12:31:58.634Z,99.90
2023-07-22T12:34:30.325Z,99.90
2023-07-22T12:37:01.965Z,99.90
2023-07-22T12:39:33.693Z,99.90
2023-07-22T12:42:05.709Z,99.90
2023-07-22T12:44:38.006Z,99.90
2023-07-22T12:47:11.072Z,99.90
2023-07-22T12:49:43.393Z,99.90
2023-07-22T12:52:15.293Z,99.90
2023-07-22T12:54:47.030Z,99.90
2023-07-22T12:57:18.603Z,99.90
2023-07-22T12:59:50.154Z,99.90
2023-07-22T13:02:21.890Z,99.90
2023-07-22T13:04:53.432Z,99.90
2023-07-22T13:07:25.166Z,99.90
2023-07-22T13:09:58.476Z,99.90
2023-07-22T13:12:29.805Z,99.90
2023-07-22T13:15:01.330Z,99.90
2023-07-22T13:17:33.292Z,99.90
2023-07-22T13:20:08.170Z,99.90
2023-07-22T13:22:40.183Z,99.90
2023-07-22T13:25:12.422Z,99.90
2023-07-22T13:27:44.003Z,99.90
2023-07-22T13:30:16.058Z,99.90
2023-07-22T13:32:48.507Z,99.90
2023-07-22T13:35:20.228Z,99.90
2023-07-22T13:37:52.190Z,99.90
2023-07-22T13:40:24.302Z,99.90
2023-07-22T13:42:55.891Z,99.90
2023-07-22T13:45:28.303Z,99.90
2023-07-22T13:47:59.941Z,99.70
2023-07-22T13:50:34.197Z,99.70
2023-07-22T13:53:05.701Z,99.90
2023-07-22T13:55:37.236Z,99.00
2023-07-22T13:58:09.106Z,98.90
2023-07-22T14:00:40.933Z,99.10
2023-07-22T14:03:12.602Z,99.90
2023-07-22T14:05:44.348Z,98.90
2023-07-22T14:08:15.997Z,99.30
2023-07-22T14:10:47.653Z,99.70
2023-07-22T14:13:20.909Z,99.90
2023-07-22T14:15:55.416Z,99.90
2023-07-22T14:18:27.891Z,99.90
2023-07-22T14:20:59.560Z,99.90
2023-07-22T14:23:31.310Z,99.90
2023-07-22T14:26:02.865Z,99.90
2023-07-22T14:28:35.427Z,99.90
2023-07-22T14:31:06.995Z,99.90
2023-07-22T14:33:38.964Z,99.90
2023-07-22T14:36:10.597Z,99.90
2023-07-22T14:38:42.304Z,99.90
2023-07-22T14:41:14.041Z,99.90
2023-07-22T14:43:45.616Z,99.90
2023-07-22T14:46:17.512Z,99.90
2023-07-22T14:48:49.275Z,99.90
2023-07-22T14:51:21.021Z,99.90
2023-07-22T14:53:53.279Z,99.80
2023-07-22T14:56:24.909Z,99.90
2023-07-22T14:58:56.890Z,99.70
2023-07-22T15:01:28.908Z,99.90
2023-07-22T15:04:00.804Z,99.90
2023-07-22T15:06:32.963Z,99.90
2023-07-22T15:09:07.470Z,99.90
2023-07-22T15:11:40.952Z,99.90
2023-07-22T15:14:12.642Z,99.90
2023-07-22T15:16:44.319Z,99.90
2023-07-22T15:19:20.476Z,99.90
2023-07-22T15:21:52.742Z,98.80
2023-07-22T15:24:24.331Z,99.00
2023-07-22T15:26:55.848Z,99.90
2023-07-22T15:29:27.419Z,99.90
2023-07-22T15:31:59.239Z,99.90
2023-07-22T15:34:31.230Z,98.90
2023-07-22T15:37:02.923Z,99.90
2023-07-22T15:39:35.680Z,99.90
2023-07-22T15:42:08.918Z,99.70
2023-07-22T15:44:41.689Z,99.90
2023-07-22T15:47:13.428Z,99.30
2023-07-22T15:49:45.312Z,98.80
2023-07-22T15:52:17.074Z,98.70
2023-07-22T15:54:48.785Z,97.80
2023-07-22T15:57:20.445Z,98.70
2023-07-22T15:59:52.082Z,97.80
2023-07-22T16:02:23.800Z,97.90
2023-07-22T16:04:55.374Z,98.70
2023-07-22T16:07:27.065Z,98.70
2023-07-22T16:09:58.691Z,98.80
2023-07-22T16:12:30.575Z,99.80
2023-07-22T16:15:02.488Z,99.20
2023-07-22T16:17:34.184Z,98.00
2023-07-22T16:20:07.142Z,98.20
2023-07-22T16:22:40.836Z,97.50
2023-07-22T16:25:12.354Z,98.10
2023-07-22T16:27:44.331Z,98.20
2023-07-22T16:30:16.019Z,96.60
2023-07-22T16:32:47.592Z,97.80
2023-07-22T16:35:19.350Z,98.60
2023-07-22T16:37:50.918Z,98.40
2023-07-22T16:40:22.679Z,97.40
2023-07-22T16:42:54.559Z,96.40
2023-07-22T16:45:26.282Z,96.40
2023-07-22T16:47:58.084Z,96.30
2023-07-22T16:50:29.577Z,95.80
2023-07-22T16:53:03.507Z,95.70
2023-07-22T16:55:35.225Z,95.00
2023-07-22T16:58:06.980Z,94.60
2023-07-22T17:00:38.714Z,95.40
2023-07-22T17:03:11.887Z,96.00
2023-07-22T17:05:43.750Z,96.20
2023-07-22T17:08:15.635Z,95.70
2023-07-22T17:10:47.314Z,95.60
2023-07-22T17:13:19.039Z,95.60
2023-07-22T17:15:50.791Z,95.30
2023-07-22T17:18:22.566Z,94.30
2023-07-22T17:20:54.927Z,95.70
2023-07-22T17:23:26.518Z,96.10
2023-07-22T17:25:58.123Z,92.90
2023-07-22T17:28:29.857Z,92.40
2023-07-22T17:31:02.001Z,92.30
2023-07-22T17:33:33.716Z,93.80
2023-07-22T17:36:05.568Z,92.50
2023-07-22T17:38:59.711Z,92.40
2023-07-22T17:41:32.525Z,92.70
2023-07-22T17:44:05.355Z,94.10
2023-07-22T17:46:37.351Z,93.90
2023-07-22T17:49:09.241Z,94.40
2023-07-22T17:51:40.904Z,91.90
2023-07-22T17:54:12.606Z,92.60
2023-07-22T17:56:44.039Z,93.00
2023-07-22T17:59:15.806Z,93.80
2023-07-22T18:01:48.465Z,94.20
2023-07-22T18:04:20.054Z,93.50
2023-07-22T18:06:51.745Z,94.10
2023-07-22T18:09:23.401Z,94.20
2023-07-22T18:11:56.153Z,94.00
2023-07-22T18:14:27.996Z,94.50
2023-07-22T18:16:59.688Z,96.00
2023-07-22T18:19:31.441Z,96.80
2023-07-22T18:22:04.555Z,97.50
2023-07-22T18:24:36.431Z,98.00
2023-07-22T18:27:09.181Z,98.00
2023-07-22T18:29:40.802Z,97.60
2023-07-22T18:32:12.674Z,98.10
2023-07-22T18:34:45.982Z,99.20
2023-07-22T18:37:17.875Z,99.30
2023-07-22T18:39:51.222Z,99.40
2023-07-22T18:42:23.117Z,99.90
2023-07-22T18:44:56.199Z,99.90
2023-07-22T18:47:27.954Z,99.90
2023-07-22T18:50:00.580Z,99.90
2023-07-22T18:52:32.672Z,99.90
2023-07-22T18:55:04.437Z,99.90
2023-07-22T18:57:37.122Z,99.90
2023-07-22T19:00:12.495Z,99.90
2023-07-22T19:02:44.238Z,99.90
2023-07-22T19:05:16.258Z,99.90
2023-07-22T19:07:48.028Z,99.90
2023-07-22T19:10:20.008Z,99.90
2023-07-22T19:12:51.872Z,99.90
2023-07-22T19:15:23.584Z,99.90
2023-07-22T19:17:55.366Z,99.90
2023-07-22T19:20:27.078Z,99.90
2023-07-22T19:22:58.857Z,99.90
2023-07-22T19:25:31.299Z,99.90
2023-07-22T19:28:03.061Z,99.90
2023-07-22T19:30:36.338Z,99.90
2023-07-22T19:33:08.149Z,99.90
2023-07-22T19:35:39.928Z,99.90
2023-07-22T19:38:11.604Z,99.90
2023-07-22T19:40:43.740Z,99.90
2023-07-22T19:43:15.423Z,99.90
2023-07-22T19:45:47.121Z,99.90
2023-07-22T19:48:18.711Z,99.90
2023-07-22T19:50:51.785Z,99.90
2023-07-22T19:53:23.406Z,99.90
2023-07-22T19:55:55.814Z,99.90
2023-07-22T19:58:27.753Z,99.90
2023-07-22T20:01:03.061Z,99.90
2023-07-22T20:03:40.079Z,99.90
2023-07-22T20:06:12.590Z,99.90
2023-07-22T20:08:42.814Z,99.90
2023-07-22T20:11:14.545Z,99.90
2023-07-22T20:13:46.254Z,99.90
2023-07-22T20:16:18.022Z,99.90
2023-07-22T20:18:49.915Z,99.90
2023-07-22T20:21:21.514Z,99.90
2023-07-22T20:23:53.610Z,99.90
2023-07-22T20:26:25.257Z,99.90
2023-07-22T20:28:56.928Z,99.90
2023-07-22T20:31:29.037Z,99.90
2023-07-22T20:34:02.738Z,99.90
2023-07-22T20:36:34.578Z,99.90
2023-07-22T20:39:06.808Z,99.90
2023-07-22T20:41:38.943Z,99.90
2023-07-22T20:44:10.524Z,99.90
2023-07-22T20:46:45.229Z,99.90
2023-07-22T20:49:16.794Z,99.90
2023-07-22T20:51:48.371Z,99.90
2023-07-22T20:54:20.082Z,99.90
2023-07-22T20:56:51.863Z,99.90
2023-07-22T20:59:23.678Z,99.90
2023-07-22T21:01:55.316Z,99.90
2023-07-22T21:04:27.012Z,99.90
2023-07-22T21:06:58.726Z,99.90
2023-07-22T21:09:30.908Z,99.90
2023-07-22T21:12:12.419Z,99.90
2023-07-22T21:14:44.346Z,99.90
2023-07-22T21:17:16.470Z,99.90
2023-07-22T21:19:48.501Z,99.90
2023-07-22T21:22:23.206Z,99.90
2023-07-22T21:24:57.852Z,99.90
2023-07-22T21:27:38.576Z,99.90
2023-07-22T21:30:02.689Z,99.90
2023-07-22T21:32:34.776Z,99.90
2023-07-22T21:35:08.769Z,99.90
2023-07-22T21:37:40.342Z,99.90
2023-07-22T21:40:12.887Z,99.90
2023-07-22T21:42:46.706Z,99.90
2023-07-22T21:45:18.354Z,99.90
2023-07-22T21:47:50.034Z,99.90
2023-07-22T21:50:21.684Z,99.90
2023-07-22T21:52:54.500Z,99.90
2023-07-22T21:55:26.499Z,99.90
2023-07-22T21:58:04.666Z,99.90
2023-07-22T22:00:41.151Z,99.90
2023-07-22T22:03:13.384Z,99.90
2023-07-22T22:05:45.073Z,99.90
2023-07-22T22:08:29.155Z,99.90
2023-07-22T22:11:05.708Z,99.90
2023-07-22T22:13:37.986Z,99.90
2023-07-22T22:16:09.723Z,99.90
2023-07-22T22:18:41.478Z,99.90
2023-07-22T22:21:13.081Z,99.90
2023-07-22T22:23:44.733Z,99.90
2023-07-22T22:26:16.332Z,99.90
2023-07-22T22:28:48.476Z,99.90
2023-07-22T22:31:20.092Z,99.90
2023-07-22T22:33:51.567Z,99.90
2023-07-22T22:36:23.396Z,99.90
2023-07-22T22:38:54.906Z,99.90
2023-07-22T22:41:27.000Z,99.90
2023-07-22T22:43:58.799Z,99.90
2023-07-22T22:46:30.520Z,99.90
2023-07-22T22:49:02.311Z,99.90
2023-07-22T22:51:33.842Z,99.90
2023-07-22T22:54:05.458Z,99.90
2023-07-22T22:56:37.963Z,99.90
2023-07-22T22:59:10.780Z,99.90
2023-07-22T23:01:42.675Z,99.90
2023-07-22T23:04:14.657Z,99.90
2023-07-22T23:06:46.289Z,99.90
2023-07-22T23:09:17.927Z,99.90
2023-07-22T23:11:49.669Z,99.90
2023-07-22T23:14:33.358Z,99.90
2023-07-22T23:17:05.415Z,99.90
2023-07-22T23:19:37.250Z,99.90
2023-07-22T23:22:08.979Z,99.90
2023-07-22T23:24:40.601Z,99.90
2023-07-22T23:27:12.237Z,99.90
2023-07-22T23:29:44.778Z,99.90
2023-07-22T23:32:16.466Z,99.90
2023-07-22T23:34:48.143Z,99.90
2023-07-22T23:37:19.841Z,99.90
2023-07-22T23:39:51.431Z,99.90
2023-07-22T23:42:23.070Z,99.90
2023-07-22T23:44:54.632Z,99.90
2023-07-22T23:47:26.077Z,99.90
2023-07-22T23:49:57.677Z,99.90
2023-07-22T23:52:29.245Z,99.90
2023-07-22T23:55:00.894Z,99.90
2023-07-22T23:57:32.395Z,99.90
